Time;durP1;ratioP1;P1;durP2;ratioP2;P2;SDS_P1;SDS_P2;PMS_P1;PMS_P2;Temp;Humidity;BMP_temperature;BMP_pressure;BME280_temperature;BME280_humidity;BME280_pressure;Samples;Min_cycle;Max_cycle;Signal;HPM_P1;HPM_P2
2022/12/12 00:02:24;;;;;;;;;33.75;25.75;;;;;2.89;55.57;100354.09;5069659;27;45816;-56
2022/12/12 00:04:49;;;;;;;;;31.50;19.00;;;;;2.96;55.09;100350.63;5092735;27;45527;-50
2022/12/12 00:07:14;;;;;;;;;39.25;29.25;;;;;3.00;54.92;100344.59;5075125;27;46166;-53
2022/12/12 00:09:40;;;;;;;;;35.00;25.00;;;;;3.05;55.05;100347.16;5068041;27;46282;-53
2022/12/12 00:12:05;;;;;;;;;38.25;29.25;;;;;3.10;55.17;100348.03;5069147;27;54166;-51
2022/12/12 00:14:31;;;;;;;;;31.00;21.25;;;;;3.12;54.87;100350.59;5064232;27;45343;-55
2022/12/12 00:16:56;;;;;;;;;47.75;27.75;;;;;3.08;55.16;100347.19;5085692;27;45403;-53
2022/12/12 00:19:21;;;;;;;;;38.00;23.25;;;;;3.11;54.91;100343.69;5079236;27;55428;-54
2022/12/12 00:21:47;;;;;;;;;35.75;27.75;;;;;3.07;55.05;100353.19;5081336;27;45452;-51
2022/12/12 00:24:12;;;;;;;;;27.25;21.75;;;;;3.09;55.02;100348.88;5070461;27;45319;-55
2022/12/12 00:26:37;;;;;;;;;28.00;23.00;;;;;3.11;55.11;100348.88;5078999;27;46569;-53
2022/12/12 00:29:03;;;;;;;;;37.75;24.00;;;;;3.07;54.90;100358.38;5068727;28;45666;-55
2022/12/12 00:31:29;;;;;;;;;29.50;23.25;;;;;3.04;55.17;100354.03;5072351;27;45374;-54
2022/12/12 00:33:55;;;;;;;;;24.50;20.75;;;;;3.00;55.19;100361.84;5073055;27;45390;-54
2022/12/12 00:36:23;;;;;;;;;28.75;19.00;;;;;2.98;54.99;100358.38;5075680;27;45637;-53
2022/12/12 00:38:50;;;;;;;;;28.00;19.50;;;;;3.00;55.17;100359.25;5078384;27;45923;-53
2022/12/12 00:41:15;;;;;;;;;33.50;23.50;;;;;2.98;55.34;100364.41;5079365;28;45373;-54
2022/12/12 00:43:41;;;;;;;;;25.00;17.25;;;;;2.96;55.08;100367.88;5069990;27;45679;-56
2022/12/12 00:46:06;;;;;;;;;28.75;19.75;;;;;2.88;55.01;100369.59;5077570;27;45401;-52
2022/12/12 00:48:32;;;;;;;;;30.25;20.00;;;;;2.81;55.28;100367.00;5080471;27;45449;-52
2022/12/12 00:51:05;;;;;;;;;35.50;19.75;;;;;2.82;55.47;100373.91;5073425;27;45377;-54
2022/12/12 00:53:30;;;;;;;;;30.75;20.50;;;;;2.82;55.17;100370.47;5078804;27;45390;-54
2022/12/12 00:55:56;;;;;;;;;36.50;24.50;;;;;2.75;55.34;100369.63;5095883;27;45532;-52
2022/12/12 00:58:22;;;;;;;;;31.00;24.00;;;;;2.69;55.13;100371.34;5070175;27;45863;-53
2022/12/12 01:00:47;;;;;;;;;34.25;23.75;;;;;2.64;55.87;100367.03;5089633;27;45731;-53
2022/12/12 01:03:13;;;;;;;;;35.50;24.50;;;;;2.59;55.76;100376.50;5071840;27;59017;-54
2022/12/12 01:05:38;;;;;;;;;31.50;22.50;;;;;2.63;55.72;100378.22;5088473;27;45386;-55
2022/12/12 01:08:03;;;;;;;;;35.25;22.00;;;;;2.61;55.30;100373.94;5076135;27;46074;-55
2022/12/12 01:10:29;;;;;;;;;35.25;22.75;;;;;2.50;55.59;100367.88;5091409;27;45535;-55
2022/12/12 01:12:54;;;;;;;;;25.75;20.75;;;;;2.44;55.80;100366.16;5070229;27;45340;-55
2022/12/12 01:15:20;;;;;;;;;23.00;18.00;;;;;2.37;55.62;100361.88;5080157;27;45414;-54
2022/12/12 01:17:45;;;;;;;;;28.00;23.00;;;;;2.30;55.67;100366.16;5079290;27;45663;-55
2022/12/12 01:20:22;;;;;;;;;33.00;21.50;;;;;2.28;56.05;100362.72;5077244;27;45940;-53
2022/12/12 01:22:48;;;;;;;;;29.50;20.25;;;;;2.27;55.87;100363.59;5052332;28;45558;-55
2022/12/12 01:25:15;;;;;;;;;23.75;18.50;;;;;2.23;56.14;100369.59;5082102;27;46383;-52
2022/12/12 01:27:41;;;;;;;;;25.00;21.50;;;;;2.25;56.16;100368.75;5093329;27;45729;-52
2022/12/12 01:30:08;;;;;;;;;35.75;23.50;;;;;2.25;56.25;100370.50;5073523;27;45520;-54
2022/12/12 01:32:33;;;;;;;;;33.75;22.25;;;;;2.16;56.21;100367.88;5091833;27;45562;-54
2022/12/12 01:34:58;;;;;;;;;27.25;19.00;;;;;2.22;56.42;100373.91;5076824;27;45477;-55
2022/12/12 01:37:24;;;;;;;;;28.25;21.00;;;;;2.31;56.10;100374.78;5071560;27;45318;-54
2022/12/12 01:39:50;;;;;;;;;31.75;19.50;;;;;2.38;56.20;100376.50;5071129;27;45368;-53
2022/12/12 01:42:17;;;;;;;;;23.75;22.50;;;;;2.40;56.00;100377.38;5075209;27;62348;-54
2022/12/12 01:44:49;;;;;;;;;27.25;22.00;;;;;2.48;56.19;100380.84;5078879;27;45512;-54
2022/12/12 01:47:17;;;;;;;;;31.50;24.75;;;;;2.51;55.92;100383.38;5072774;27;45427;-52
2022/12/12 01:49:46;;;;;;;;;32.25;22.00;;;;;2.42;55.91;100381.66;5078508;27;45464;-53
2022/12/12 01:52:16;;;;;;;;;27.75;17.50;;;;;2.34;55.79;100378.22;5078365;27;45453;-52
2022/12/12 01:54:45;;;;;;;;;31.50;19.75;;;;;2.37;56.11;100382.53;5080032;27;46092;-54
2022/12/12 01:57:18;;;;;;;;;31.75;21.75;;;;;2.38;55.84;100374.78;5092312;27;45551;-55
2022/12/12 01:59:44;;;;;;;;;22.50;18.00;;;;;2.28;55.78;100384.25;5086452;27;45389;-54
2022/12/12 02:02:11;;;;;;;;;28.25;21.50;;;;;2.25;56.00;100376.50;5077676;27;45439;-54
2022/12/12 02:04:36;;;;;;;;;28.50;20.00;;;;;2.27;56.20;100379.09;5089927;27;45301;-53
2022/12/12 02:07:02;;;;;;;;;30.50;21.25;;;;;2.35;55.94;100386.84;5067053;27;45529;-49
2022/12/12 02:09:28;;;;;;;;;22.50;17.75;;;;;2.35;56.07;100371.34;5075223;27;45421;-54
2022/12/12 02:11:55;;;;;;;;;30.00;21.00;;;;;2.39;55.99;100378.22;5075042;27;45581;-54
2022/12/12 02:14:26;;;;;;;;;30.00;19.50;;;;;2.47;55.76;100382.53;5078732;27;45735;-50
2022/12/12 02:17:07;;;;;;;;;26.50;20.25;;;;;2.54;55.55;100378.22;5076178;27;45476;-53
2022/12/12 02:20:05;;;;;;;;;33.25;15.25;;;;;2.51;55.44;100382.53;5082983;27;45361;-53
2022/12/12 02:22:58;;;;;;;;;29.75;23.75;;;;;2.43;55.77;100382.53;5072786;27;45374;-53
2022/12/12 02:25:42;;;;;;;;;27.75;18.75;;;;;2.39;55.86;100380.81;5072430;27;45614;-50
2022/12/12 02:28:32;;;;;;;;;38.00;22.75;;;;;2.45;55.92;100380.81;5073614;27;45469;-53
2022/12/12 02:31:00;;;;;;;;;25.50;17.50;;;;;2.53;55.71;100384.25;5069936;27;45714;-51
2022/12/12 02:33:30;;;;;;;;;28.50;18.00;;;;;2.55;55.68;100382.56;5072612;27;45549;-52
2022/12/12 02:36:12;;;;;;;;;31.75;22.75;;;;;2.57;55.79;100392.88;5089224;27;46787;-53
2022/12/12 02:39:06;;;;;;;;;34.25;19.25;;;;;2.63;55.65;100382.53;5068567;27;45747;-52
2022/12/12 02:41:50;;;;;;;;;27.00;18.25;;;;;2.67;55.51;100386.84;5078505;27;45390;-52
2022/12/12 02:44:38;;;;;;;;;34.50;20.75;;;;;2.66;55.79;100391.16;5076798;27;45215;-51
2022/12/12 02:47:12;;;;;;;;;31.75;22.00;;;;;2.69;55.31;100386.84;5074930;27;46337;-52
2022/12/12 02:49:47;;;;;;;;;28.75;20.00;;;;;2.71;55.58;100383.41;5090138;27;45524;-51
2022/12/12 02:52:12;;;;;;;;;36.00;23.75;;;;;2.76;55.46;100381.69;5078691;27;45230;-54
2022/12/12 02:54:37;;;;;;;;;36.25;19.00;;;;;2.81;55.31;100376.50;5072267;27;45531;-52
2022/12/12 02:57:03;;;;;;;;;26.25;19.75;;;;;2.77;55.20;100380.81;5081087;27;59136;-52
2022/12/12 02:59:33;;;;;;;;;31.75;23.50;;;;;2.71;55.17;100383.41;5073034;27;45425;-55
2022/12/12 03:02:17;;;;;;;;;29.00;17.75;;;;;2.70;55.20;100371.34;5073706;27;45506;-53
2022/12/12 03:08:07;;;;;;;;;27.50;17.50;;;;;2.63;55.56;100365.31;5072513;28;45965;-53
2022/12/12 03:10:45;;;;;;;;;34.50;16.00;;;;;2.61;55.46;100372.19;5076385;27;45376;-53
2022/12/12 03:13:19;;;;;;;;;20.00;14.00;;;;;2.60;55.48;100372.19;5075522;27;45567;-49
2022/12/12 03:16:08;;;;;;;;;25.75;18.00;;;;;2.63;55.55;100373.06;5065930;27;45419;-54
2022/12/12 03:18:49;;;;;;;;;24.50;19.00;;;;;2.64;55.14;100359.28;5074158;27;45540;-55
2022/12/12 03:21:18;;;;;;;;;27.00;18.25;;;;;2.57;55.30;100367.91;5073898;27;45294;-52
2022/12/12 03:23:46;;;;;;;;;29.50;20.00;;;;;2.56;55.41;100371.34;5068667;27;45439;-54
2022/12/12 03:26:29;;;;;;;;;23.75;18.00;;;;;2.55;55.55;100371.34;5073112;27;47102;-54
2022/12/12 03:29:00;;;;;;;;;24.25;15.50;;;;;2.60;55.61;100369.63;5071319;28;46487;-53
2022/12/12 03:31:29;;;;;;;;;33.00;19.25;;;;;2.64;55.71;100361.03;5090917;27;45350;-53
2022/12/12 03:34:01;;;;;;;;;25.25;17.25;;;;;2.71;55.57;100367.03;5087961;27;45318;-49
2022/12/12 03:36:31;;;;;;;;;28.75;18.75;;;;;2.74;55.48;100365.28;5077192;27;45278;-53
2022/12/12 03:39:11;;;;;;;;;28.00;19.25;;;;;2.70;55.54;100368.75;5089971;27;45409;-54
2022/12/12 03:41:43;;;;;;;;;26.50;17.25;;;;;2.71;55.54;100367.91;5072657;28;45944;-55
2022/12/12 03:44:18;;;;;;;;;26.50;18.25;;;;;2.70;55.37;100373.06;5090003;27;45396;-53
2022/12/12 03:46:50;;;;;;;;;21.25;11.75;;;;;2.68;55.33;100369.63;5076553;27;45702;-50
2022/12/12 03:49:20;;;;;;;;;26.75;18.50;;;;;2.64;55.67;100367.03;5069991;27;46178;-53
2022/12/12 03:51:51;;;;;;;;;26.00;19.00;;;;;2.67;55.59;100379.09;5074030;27;45561;-53
2022/12/12 03:54:39;;;;;;;;;16.25;15.25;;;;;2.74;55.75;100380.81;5093570;27;45740;-55
2022/12/12 03:57:21;;;;;;;;;32.75;18.00;;;;;2.75;55.48;100372.19;5066391;27;46058;-54
2022/12/12 03:59:52;;;;;;;;;30.75;17.75;;;;;2.79;55.44;100378.22;5084160;27;46249;-52
2022/12/12 04:02:29;;;;;;;;;22.25;18.75;;;;;2.82;55.66;100378.22;5068521;28;45770;-51
2022/12/12 04:05:10;;;;;;;;;27.00;19.25;;;;;2.88;55.49;100377.34;5075002;27;45492;-54
2022/12/12 04:07:40;;;;;;;;;25.50;15.00;;;;;2.90;55.43;100383.38;5086651;27;45433;-55
2022/12/12 04:13:12;;;;;;;;;24.75;18.50;;;;;2.91;55.37;100390.28;5073254;27;45468;-55
2022/12/12 04:15:40;;;;;;;;;21.00;16.25;;;;;2.87;55.38;100391.13;5080738;27;45382;-54
2022/12/12 04:18:30;;;;;;;;;28.75;16.50;;;;;2.93;55.40;100394.56;5090967;27;45897;-51
2022/12/12 04:24:15;;;;;;;;;27.00;18.75;;;;;3.06;55.43;100403.16;5067690;27;45495;-54
2022/12/12 04:26:58;;;;;;;;;27.50;19.00;;;;;3.13;54.97;100401.44;5075025;27;45166;-53
2022/12/12 04:29:39;;;;;;;;;26.75;19.75;;;;;3.17;54.91;100403.13;5069527;27;45573;-55
2022/12/12 04:32:11;;;;;;;;;21.50;18.75;;;;;3.20;55.35;100405.72;5066432;27;45505;-51
2022/12/12 04:34:57;;;;;;;;;20.25;14.50;;;;;3.25;55.14;100404.00;5089229;27;45403;-55
2022/12/12 04:37:46;;;;;;;;;21.50;15.75;;;;;3.29;54.92;100407.44;5085173;27;45597;-55
2022/12/12 04:40:15;;;;;;;;;21.00;16.00;;;;;3.33;54.81;100403.97;5083177;27;45677;-55
2022/12/12 04:42:47;;;;;;;;;24.25;15.25;;;;;3.35;54.52;100395.34;5076921;27;45497;-51
2022/12/12 04:45:16;;;;;;;;;32.75;22.00;;;;;3.39;54.74;100396.22;5091860;27;45472;-55
2022/12/12 04:47:44;;;;;;;;;29.25;19.75;;;;;3.40;54.54;100403.97;5075091;27;45311;-55
2022/12/12 04:50:11;;;;;;;;;33.00;22.75;;;;;3.44;54.55;100406.56;5080492;27;45469;-54
2022/12/12 04:52:37;;;;;;;;;26.25;22.50;;;;;3.46;54.71;100408.25;5088034;27;45518;-50
2022/12/12 04:55:11;;;;;;;;;28.00;22.50;;;;;3.52;54.69;100409.94;5078948;27;45407;-52
2022/12/12 04:57:47;;;;;;;;;24.75;20.00;;;;;3.47;54.49;100407.41;5077023;28;45467;-53
2022/12/12 05:00:13;;;;;;;;;28.50;20.75;;;;;3.41;54.69;100404.81;5057302;28;45677;-55
2022/12/12 05:02:44;;;;;;;;;30.75;20.25;;;;;3.38;54.57;100410.00;5076717;28;45328;-55
2022/12/12 05:05:13;;;;;;;;;29.50;23.75;;;;;3.33;54.60;100404.84;5076189;27;45950;-54
2022/12/12 05:07:40;;;;;;;;;31.50;20.75;;;;;3.31;54.59;100400.53;5077385;28;45263;-55
2022/12/12 05:10:10;;;;;;;;;24.50;20.75;;;;;3.27;54.68;100399.69;5091866;27;45567;-53
2022/12/12 05:12:45;;;;;;;;;28.50;21.00;;;;;3.31;54.40;100398.81;5095634;27;47225;-51
2022/12/12 05:15:12;;;;;;;;;30.00;20.00;;;;;3.29;54.67;100389.34;5078515;27;46070;-56
2022/12/12 05:17:46;;;;;;;;;34.25;23.00;;;;;3.32;54.57;100400.53;5069356;27;45269;-55
2022/12/12 05:20:13;;;;;;;;;39.00;20.75;;;;;3.29;54.63;100392.78;5070254;27;45565;-56
2022/12/12 05:22:38;;;;;;;;;30.75;23.00;;;;;3.33;54.69;100397.09;5083525;27;45453;-54
2022/12/12 05:25:04;;;;;;;;;25.50;21.75;;;;;3.34;54.68;100400.53;5072382;27;54629;-56
2022/12/12 05:27:29;;;;;;;;;31.25;22.00;;;;;3.35;54.65;100405.69;5076781;27;45579;-55
2022/12/12 05:29:54;;;;;;;;;27.00;21.00;;;;;3.38;54.51;100404.81;5068249;27;53499;-54
2022/12/12 05:32:20;;;;;;;;;30.50;22.25;;;;;3.32;54.58;100395.34;5078661;27;66683;-55
2022/12/12 05:34:45;;;;;;;;;34.50;24.50;;;;;3.30;54.52;100394.50;5096815;27;61920;-51
2022/12/12 05:37:10;;;;;;;;;31.75;23.25;;;;;3.27;54.66;100396.25;5075646;27;45357;-53
2022/12/12 05:39:36;;;;;;;;;23.25;20.25;;;;;3.23;54.73;100390.22;5076309;28;65778;-53
2022/12/12 05:42:01;;;;;;;;;29.00;16.00;;;;;3.20;54.68;100379.88;5078703;27;45733;-54
2022/12/12 05:44:27;;;;;;;;;38.00;25.00;;;;;3.20;54.92;100383.31;5078913;27;45311;-55
2022/12/12 05:46:52;;;;;;;;;30.50;24.25;;;;;3.16;54.51;100386.78;5070119;27;53752;-53
2022/12/12 05:49:17;;;;;;;;;31.25;19.75;;;;;3.12;54.87;100386.81;5077363;27;45440;-56
2022/12/12 05:51:43;;;;;;;;;35.25;27.25;;;;;3.08;54.83;100388.53;5070855;27;57992;-54
2022/12/12 05:54:09;;;;;;;;;34.75;24.50;;;;;3.11;54.94;100390.25;5084518;27;45395;-50
2022/12/12 05:56:35;;;;;;;;;32.25;26.50;;;;;3.17;54.99;100397.97;5082610;27;45537;-55
2022/12/12 05:59:00;;;;;;;;;29.25;25.50;;;;;3.18;54.72;100392.78;5062243;28;45536;-51
2022/12/12 06:01:25;;;;;;;;;34.50;20.25;;;;;3.16;54.90;100393.69;5076415;28;58664;-55
2022/12/12 06:03:51;;;;;;;;;26.75;24.00;;;;;3.17;54.78;100392.78;5072852;28;47700;-55
2022/12/12 06:06:16;;;;;;;;;33.00;22.25;;;;;3.18;54.63;100399.69;5066689;27;60482;-55
2022/12/12 06:08:41;;;;;;;;;38.75;24.00;;;;;3.16;54.85;100404.88;5074573;28;57800;-54
2022/12/12 06:11:07;;;;;;;;;28.50;21.00;;;;;3.10;54.80;100401.44;5063489;28;63042;-55
2022/12/12 06:13:32;;;;;;;;;28.75;24.00;;;;;3.03;54.86;100388.53;5069411;28;45296;-53
2022/12/12 06:15:58;;;;;;;;;35.00;24.00;;;;;3.08;55.03;100398.88;5084736;27;45357;-53
2022/12/12 06:18:23;;;;;;;;;27.50;22.25;;;;;3.11;55.11;100410.91;5077089;27;61232;-56
2022/12/12 06:20:48;;;;;;;;;32.25;23.25;;;;;3.15;54.97;100407.47;5066481;27;45546;-51
2022/12/12 06:23:14;;;;;;;;;35.00;24.50;;;;;3.21;54.94;100407.47;5069645;27;61459;-53
2022/12/12 06:25:39;;;;;;;;;27.75;22.75;;;;;3.25;54.84;100409.16;5078103;27;45448;-54
2022/12/12 06:28:04;;;;;;;;;32.50;23.00;;;;;3.29;54.84;100405.69;5073253;27;45593;-52
2022/12/12 06:30:30;;;;;;;;;32.75;21.25;;;;;3.25;54.76;100408.31;5088224;27;63052;-54
2022/12/12 06:32:55;;;;;;;;;23.50;21.50;;;;;3.22;54.93;100415.22;5063672;28;45264;-53
2022/12/12 06:35:21;;;;;;;;;33.50;23.25;;;;;3.21;54.66;100410.03;5074706;27;45284;-55
2022/12/12 06:37:47;;;;;;;;;36.50;25.25;;;;;3.20;54.88;100413.50;5070258;28;45502;-54
2022/12/12 06:40:13;;;;;;;;;11.75;11.75;;;;;3.13;54.82;100409.19;5078465;27;47414;-51
2022/12/12 06:42:38;;;;;;;;;33.50;26.75;;;;;3.12;54.96;100413.50;5073589;28;45752;-54
2022/12/12 06:45:04;;;;;;;;;31.00;21.50;;;;;3.12;54.99;100410.06;5069912;27;45296;-53
2022/12/12 06:47:29;;;;;;;;;36.25;25.25;;;;;3.10;54.94;100410.06;5073028;27;45878;-53
2022/12/12 06:49:55;;;;;;;;;32.25;22.75;;;;;3.05;55.04;100406.63;5070195;28;64364;-55
2022/12/12 06:52:20;;;;;;;;;33.25;26.75;;;;;3.04;54.92;100416.09;5088215;27;61172;-52
2022/12/12 06:54:46;;;;;;;;;31.00;23.50;;;;;3.04;55.21;100416.09;5066076;27;59829;-49
2022/12/12 06:57:11;;;;;;;;;29.50;21.25;;;;;3.09;55.01;100410.06;5068271;27;45512;-53
2022/12/12 06:59:36;;;;;;;;;27.25;24.00;;;;;3.11;55.14;100409.19;5069575;27;65511;-51
2022/12/12 07:02:02;;;;;;;;;36.00;26.50;;;;;3.10;54.89;100406.59;5075439;27;45493;-52
2022/12/12 07:04:28;;;;;;;;;27.50;21.50;;;;;3.11;54.94;100406.59;5073529;27;46886;-51
2022/12/12 07:06:53;;;;;;;;;32.50;24.25;;;;;3.14;55.05;100405.75;5074206;27;45352;-52
2022/12/12 07:09:19;;;;;;;;;35.50;25.50;;;;;3.16;54.90;100410.03;5076104;27;46944;-51
2022/12/12 07:11:45;;;;;;;;;20.75;16.25;;;;;3.15;54.72;100407.47;5065577;27;45401;-51
2022/12/12 07:14:10;;;;;;;;;25.50;21.00;;;;;3.12;54.93;100395.41;5071192;28;45279;-53
2022/12/12 07:16:36;;;;;;;;;40.75;27.75;;;;;3.17;54.78;100400.56;5070638;27;45769;-51
2022/12/12 07:19:02;;;;;;;;;32.50;23.75;;;;;3.20;55.07;100397.97;5061960;28;45496;-51
2022/12/12 07:21:28;;;;;;;;;27.75;19.25;;;;;3.23;54.85;100400.56;5061680;28;45232;-50
2022/12/12 07:23:55;;;;;;;;;34.75;23.25;;;;;3.24;54.82;100412.63;5082486;27;45722;-49
2022/12/12 07:26:21;;;;;;;;;34.25;23.25;;;;;3.27;54.57;100422.94;5075609;27;45394;-51
2022/12/12 07:28:48;;;;;;;;;44.25;25.50;;;;;3.29;54.76;100431.56;5064354;27;46601;-52
2022/12/12 07:31:16;;;;;;;;;35.75;25.50;;;;;3.30;54.82;100432.44;5071661;28;46291;-50
2022/12/12 07:33:42;;;;;;;;;34.75;27.75;;;;;3.29;54.62;100433.28;5077911;28;45434;-51
2022/12/12 07:36:07;;;;;;;;;31.25;21.75;;;;;3.22;54.65;100429.84;5074078;27;45493;-54
2022/12/12 07:38:33;;;;;;;;;37.50;27.25;;;;;3.17;54.57;100434.16;5072072;27;45462;-53
2022/12/12 07:41:05;;;;;;;;;32.75;23.00;;;;;3.17;54.81;100441.94;5075103;28;46688;-51
2022/12/12 07:43:30;;;;;;;;;38.00;24.00;;;;;3.14;54.70;100439.38;5073006;27;45520;-54
2022/12/12 07:45:55;;;;;;;;;11.50;5.75;;;;;3.13;54.58;100435.03;5069687;27;59023;-54
2022/12/12 07:48:20;;;;;;;;;35.75;24.75;;;;;3.06;54.58;100444.53;5081128;27;68044;-54
2022/12/12 07:50:46;;;;;;;;;32.25;24.75;;;;;2.91;54.58;100434.22;5065976;27;61289;-52
2022/12/12 07:53:11;;;;;;;;;32.75;25.00;;;;;2.87;54.95;100435.94;5070891;27;45578;-50
2022/12/12 07:55:39;;;;;;;;;37.00;28.50;;;;;2.91;54.82;100431.63;5083927;27;46403;-54
2022/12/12 07:58:04;;;;;;;;;40.25;24.25;;;;;2.87;54.53;100437.66;5072109;27;46077;-53
2022/12/12 08:00:29;;;;;;;;;32.00;23.50;;;;;2.79;54.76;100442.81;5063342;27;62663;-51
2022/12/12 08:02:55;;;;;;;;;39.00;24.50;;;;;2.75;54.83;100449.72;5069237;27;48191;-54
2022/12/12 08:05:20;;;;;;;;;35.00;21.25;;;;;2.73;54.98;100445.44;5065920;27;45526;-53
2022/12/12 08:07:46;;;;;;;;;39.50;24.50;;;;;2.70;54.78;100445.41;5068987;27;45652;-55
2022/12/12 08:10:11;;;;;;;;;26.75;23.00;;;;;2.71;54.93;100452.28;5073473;27;45504;-54
2022/12/12 08:12:36;;;;;;;;;31.75;25.25;;;;;2.75;54.87;100454.03;5071233;27;51759;-52
2022/12/12 08:15:02;;;;;;;;;34.00;26.25;;;;;2.80;54.87;100458.34;5070598;27;45572;-52
2022/12/12 08:17:27;;;;;;;;;35.50;25.00;;;;;2.84;54.55;100465.22;5065498;27;46598;-53
2022/12/12 08:19:53;;;;;;;;;34.00;26.25;;;;;2.87;54.57;100471.25;5071750;27;45426;-55
2022/12/12 08:22:18;;;;;;;;;37.25;24.50;;;;;2.93;54.89;100472.13;5069740;27;57318;-56
2022/12/12 08:24:44;;;;;;;;;40.75;25.50;;;;;2.94;54.64;100460.94;5074590;27;45563;-54
2022/12/12 08:27:10;;;;;;;;;35.75;26.25;;;;;2.94;54.63;100463.50;5073355;27;45453;-50
2022/12/12 08:29:35;;;;;;;;;28.75;26.50;;;;;3.00;54.70;100460.91;5062850;27;45453;-54
2022/12/12 08:32:01;;;;;;;;;35.25;23.75;;;;;3.00;54.57;100463.50;5071482;27;45450;-53
2022/12/12 08:34:26;;;;;;;;;32.00;27.50;;;;;2.92;54.29;100466.94;5074207;28;67233;-52
2022/12/12 08:36:53;;;;;;;;;31.50;24.00;;;;;2.79;54.49;100466.94;5069107;27;46199;-54
2022/12/12 08:39:19;;;;;;;;;32.75;26.75;;;;;2.75;54.44;100460.06;5079142;28;45382;-52
2022/12/12 08:41:49;;;;;;;;;40.50;27.75;;;;;2.77;54.84;100467.81;5097397;27;45516;-55
2022/12/12 08:44:17;;;;;;;;;31.00;25.25;;;;;2.74;54.38;100483.31;5063180;27;45503;-51
2022/12/12 08:46:42;;;;;;;;;36.25;28.50;;;;;2.70;54.46;100479.84;5071642;27;45551;-53
2022/12/12 08:49:08;;;;;;;;;40.50;31.50;;;;;2.69;54.70;100482.44;5070588;27;58265;-54
2022/12/12 08:51:36;;;;;;;;;36.25;25.75;;;;;2.71;54.67;100484.19;5077905;27;45602;-51
2022/12/12 08:54:02;;;;;;;;;35.25;25.25;;;;;2.75;54.80;100493.63;5080249;28;45626;-51
2022/12/12 08:56:27;;;;;;;;;45.75;27.25;;;;;2.77;54.46;100501.41;5077546;27;53975;-50
2022/12/12 08:58:52;;;;;;;;;36.25;23.00;;;;;2.73;54.50;100503.13;5078150;28;45341;-51
2022/12/12 09:01:23;;;;;;;;;35.00;26.25;;;;;2.75;54.66;100505.72;5079695;27;45497;-53
2022/12/12 09:03:50;;;;;;;;;34.75;24.50;;;;;2.80;54.52;100497.09;5068361;28;45587;-54
2022/12/12 09:06:16;;;;;;;;;41.25;27.50;;;;;2.85;54.59;100491.91;5088954;27;46484;-55
2022/12/12 09:08:42;;;;;;;;;36.50;28.50;;;;;2.92;54.71;100495.38;5079230;27;45733;-54
2022/12/12 09:11:08;;;;;;;;;37.25;25.00;;;;;2.95;54.37;100490.22;5080610;27;45432;-55
2022/12/12 09:13:33;;;;;;;;;34.00;24.75;;;;;2.94;54.21;100499.69;5080862;27;45374;-52
2022/12/12 09:15:58;;;;;;;;;37.25;24.50;;;;;2.91;53.77;100506.59;5079983;27;46276;-50
2022/12/12 09:18:24;;;;;;;;;36.25;24.00;;;;;2.93;53.82;100502.28;5080927;28;45391;-55
2022/12/12 09:20:54;;;;;;;;;37.75;24.75;;;;;2.93;53.83;100497.97;5074273;28;45406;-52
2022/12/12 09:23:21;;;;;;;;;45.75;27.25;;;;;2.88;53.97;100494.50;5079362;28;46510;-53
2022/12/12 09:25:47;;;;;;;;;34.25;26.50;;;;;2.79;53.81;100505.69;5088233;27;46410;-54
2022/12/12 09:28:14;;;;;;;;;42.00;27.25;;;;;2.67;53.87;100508.25;5072097;27;45624;-51
2022/12/12 09:30:40;;;;;;;;;36.75;29.25;;;;;2.49;53.97;100492.75;5078503;27;45164;-54
2022/12/12 09:33:05;;;;;;;;;38.25;30.25;;;;;2.36;54.37;100489.28;5075354;27;45404;-55
2022/12/12 09:35:31;;;;;;;;;46.00;28.00;;;;;2.36;54.50;100490.13;5075923;27;46041;-54
2022/12/12 09:37:56;;;;;;;;;40.75;31.50;;;;;2.40;54.70;100489.28;5068259;27;45431;-53
2022/12/12 09:40:51;;;;;;;;;35.00;25.25;;;;;2.47;54.47;100492.72;5072814;27;59590;-55
2022/12/12 09:43:21;;;;;;;;;42.50;24.25;;;;;2.56;54.22;100494.47;5074857;27;45809;-54
2022/12/12 09:45:46;;;;;;;;;36.25;27.25;;;;;2.55;54.33;100493.63;5081528;27;46106;-53
2022/12/12 09:48:22;;;;;;;;;47.50;31.00;;;;;2.52;54.23;100482.41;5079699;27;46823;-55
2022/12/12 09:50:48;;;;;;;;;30.75;24.50;;;;;2.51;53.96;100493.59;5073819;27;45775;-54
2022/12/12 09:53:16;;;;;;;;;33.00;28.25;;;;;2.49;54.42;100491.00;5074175;27;61458;-53
2022/12/12 09:56:09;;;;;;;;;37.25;23.50;;;;;2.53;54.43;100491.88;5081428;27;46177;-55
2022/12/12 09:58:34;;;;;;;;;47.00;28.50;;;;;2.54;54.41;100478.97;5094474;27;45893;-55
2022/12/12 10:01:47;;;;;;;;;49.33;31.67;;;;;2.55;54.17;100485.00;5073178;27;45514;-51
2022/12/12 10:04:23;;;;;;;;;47.00;31.25;;;;;2.54;54.06;100478.97;5074802;27;45387;-50
2022/12/12 10:06:56;;;;;;;;;39.00;26.75;;;;;2.55;54.17;100472.06;5070273;27;46656;-53
2022/12/12 10:09:24;;;;;;;;;46.00;26.50;;;;;2.56;54.07;100473.81;5069491;28;45809;-56
2022/12/12 10:11:54;;;;;;;;;44.75;27.75;;;;;2.59;54.17;100477.25;5075498;27;45405;-53
2022/12/12 10:14:26;;;;;;;;;45.00;31.25;;;;;2.69;54.43;100469.50;5075980;28;45367;-55
2022/12/12 10:16:51;;;;;;;;;40.00;27.50;;;;;2.79;54.29;100460.91;5069571;27;45441;-54
2022/12/12 10:19:25;;;;;;;;;39.50;30.25;;;;;2.87;54.13;100451.44;5065654;28;53043;-55
2022/12/12 10:21:52;;;;;;;;;30.25;21.50;;;;;2.95;53.95;100447.13;5077581;27;45311;-56
2022/12/12 10:24:28;;;;;;;;;41.75;33.25;;;;;3.06;54.07;100454.00;5093575;27;45731;-53
2022/12/12 10:26:54;;;;;;;;;44.25;32.75;;;;;3.15;53.68;100448.81;5090178;27;45641;-56
2022/12/12 10:29:21;;;;;;;;;47.25;29.25;;;;;3.22;53.65;100447.94;5071958;27;45458;-55
2022/12/12 10:31:53;;;;;;;;;46.75;30.25;;;;;3.22;53.53;100442.78;5069825;28;45433;-52
2022/12/12 10:34:31;;;;;;;;;43.25;30.00;;;;;3.22;53.25;100451.41;5075295;28;45465;-54
2022/12/12 10:36:59;;;;;;;;;41.25;26.75;;;;;3.20;53.34;100447.94;5076336;27;45408;-55
2022/12/12 10:39:52;;;;;;;;;39.50;31.75;;;;;3.09;53.30;100449.69;5074399;28;45404;-51
2022/12/12 10:42:35;;;;;;;;;43.50;32.75;;;;;3.07;53.65;100455.75;5076721;27;45460;-52
2022/12/12 10:45:13;;;;;;;;;37.00;26.75;;;;;3.11;53.70;100466.06;5077191;27;45822;-55
2022/12/12 10:47:38;;;;;;;;;50.75;31.50;;;;;3.20;53.63;100455.72;5072339;27;45730;-56
2022/12/12 10:50:10;;;;;;;;;45.25;29.75;;;;;3.35;53.46;100452.25;5089140;27;45263;-55
2022/12/12 10:52:36;;;;;;;;;43.75;30.25;;;;;3.44;53.11;100448.78;5060982;28;45363;-51
2022/12/12 10:55:04;;;;;;;;;36.50;29.00;;;;;3.50;53.05;100450.50;5079240;27;45432;-54
2022/12/12 10:57:34;;;;;;;;;32.25;24.50;;;;;3.44;53.05;100451.38;5064642;27;46360;-55
2022/12/12 11:00:15;;;;;;;;;41.00;29.50;;;;;3.38;52.91;100441.91;5076392;28;45708;-55
2022/12/12 11:02:42;;;;;;;;;37.25;28.50;;;;;3.35;52.58;100434.16;5063715;27;45451;-55
2022/12/12 11:05:15;;;;;;;;;50.75;31.50;;;;;3.34;52.61;100426.38;5066129;27;45213;-54
2022/12/12 11:07:47;;;;;;;;;33.50;25.00;;;;;3.42;52.87;100424.66;5077251;28;47139;-53
2022/12/12 11:10:36;;;;;;;;;43.75;29.75;;;;;3.51;52.20;100427.22;5064805;28;46100;-54
2022/12/12 11:13:14;;;;;;;;;42.25;30.25;;;;;3.52;52.42;100417.72;5069751;27;45363;-53
2022/12/12 11:15:44;;;;;;;;;47.75;31.75;;;;;3.53;52.48;100416.88;5086736;27;45389;-52
2022/12/12 11:18:15;;;;;;;;;40.00;29.50;;;;;3.52;51.95;100410.81;5078623;27;46356;-53
2022/12/12 11:20:49;;;;;;;;;41.00;31.00;;;;;3.50;52.38;100403.94;5087588;27;45717;-53
2022/12/12 11:23:24;;;;;;;;;40.75;27.25;;;;;3.45;52.30;100397.91;5068373;28;45589;-53
2022/12/12 11:26:05;;;;;;;;;52.00;30.50;;;;;3.44;52.56;100385.84;5079137;27;45508;-52
2022/12/12 11:28:33;;;;;;;;;46.75;30.25;;;;;3.45;52.04;100369.44;5083787;27;45395;-53
2022/12/12 11:31:03;;;;;;;;;49.25;33.25;;;;;3.47;52.25;100353.06;5070556;27;45471;-56
2022/12/12 11:33:36;;;;;;;;;46.50;27.00;;;;;3.49;51.75;100353.03;5063468;28;45347;-52
2022/12/12 11:36:05;;;;;;;;;36.25;29.25;;;;;3.47;51.91;100344.44;5076851;27;45518;-54
2022/12/12 11:38:36;;;;;;;;;47.00;28.75;;;;;3.41;51.76;100338.41;5070475;27;45449;-53